Time;durP1;ratioP1;P1;durP2;ratioP2;P2;SDS_P1;SDS_P2;PMS_P1;PMS_P2;Temp;Humidity;BMP_temperature;BMP_pressure;BME280_temperature;BME280_humidity;BME280_pressure;Samples;Min_cycle;Max_cycle;Signal;HPM_P1;HPM_P2
2023/06/16 00:01:22;;;;;;;18.42;10.18;;;;;;;18.26;100.00;101912.06;5031048;28;20033;-47
2023/06/16 00:03:49;;;;;;;16.27;10.15;;;;;;;18.25;100.00;101910.38;5037068;28;20064;-49
2023/06/16 00:06:16;;;;;;;14.50;10.57;;;;;;;18.21;100.00;101907.22;5027444;28;20424;-44
2023/06/16 00:08:44;;;;;;;16.58;10.55;;;;;;;18.17;100.00;101912.25;5037041;28;20081;-49
2023/06/16 00:11:10;;;;;;;14.73;10.07;;;;;;;18.17;100.00;101912.25;5048368;28;20029;-44
2023/06/16 00:13:35;;;;;;;20.92;10.02;;;;;;;18.17;100.00;101908.69;5043090;28;20098;-45
2023/06/16 00:16:02;;;;;;;20.38;9.95;;;;;;;18.18;100.00;101905.75;5033877;28;20467;-49
2023/06/16 00:18:29;;;;;;;16.80;11.15;;;;;;;18.16;100.00;101904.28;5036918;28;20021;-48
2023/06/16 00:20:55;;;;;;;12.52;9.75;;;;;;;18.17;100.00;101898.63;5030002;28;20029;-45
2023/06/16 00:23:22;;;;;;;15.95;9.65;;;;;;;18.16;100.00;101904.28;5030065;28;20027;-47
2023/06/16 00:25:48;;;;;;;15.27;10.05;;;;;;;18.12;100.00;101897.56;5031309;28;20106;-46
2023/06/16 00:28:14;;;;;;;18.15;10.13;;;;;;;18.13;100.00;101901.97;5034505;28;20028;-47
2023/06/16 00:30:39;;;;;;;16.85;10.27;;;;;;;18.09;100.00;101901.56;5047975;28;20033;-46
2023/06/16 00:33:05;;;;;;;18.08;10.30;;;;;;;18.09;100.00;101896.09;5044690;28;20052;-46
2023/06/16 00:35:31;;;;;;;14.25;9.38;;;;;;;18.06;100.00;101899.25;5035261;28;20468;-48
2023/06/16 00:37:56;;;;;;;14.45;9.02;;;;;;;18.03;100.00;101894.19;5041701;28;20024;-50
2023/06/16 00:40:23;;;;;;;16.30;9.60;;;;;;;18.02;100.00;101887.06;5046403;28;20017;-47
2023/06/16 00:42:48;;;;;;;17.70;10.18;;;;;;;17.98;100.00;101892.09;5031878;28;20052;-48
2023/06/16 00:45:14;;;;;;;16.02;10.50;;;;;;;17.96;100.00;101890.63;5031385;28;20072;-46
2023/06/16 00:47:39;;;;;;;14.27;10.10;;;;;;;17.97;100.00;101895.84;5040681;28;20086;-45
2023/06/16 00:50:07;;;;;;;13.95;9.63;;;;;;;17.96;100.00;101893.34;5042730;28;20033;-45
2023/06/16 00:52:36;;;;;;;13.43;9.32;;;;;;;17.96;100.00;101887.91;5042914;28;20033;-49
2023/06/16 00:55:02;;;;;;;17.52;9.00;;;;;;;17.93;100.00;101893.72;5042922;28;20095;-44
2023/06/16 00:57:28;;;;;;;15.20;9.13;;;;;;;17.91;100.00;101884.94;5048643;28;20045;-46
2023/06/16 00:59:53;;;;;;;18.58;9.35;;;;;;;17.90;100.00;101883.25;5047862;28;20077;-46
2023/06/16 01:02:22;;;;;;;14.98;9.52;;;;;;;17.88;100.00;101879.91;5038539;28;20253;-46
2023/06/16 01:04:51;;;;;;;17.23;9.68;;;;;;;17.87;100.00;101881.78;5039899;28;20029;-45
2023/06/16 01:07:31;;;;;;;15.15;9.15;;;;;;;17.86;100.00;101879.28;5030101;28;20029;-48
2023/06/16 01:10:04;;;;;;;14.88;10.05;;;;;;;17.86;100.00;101882.00;5032824;28;20041;-47
2023/06/16 01:12:33;;;;;;;15.23;9.15;;;;;;;17.77;100.00;101887.59;5051341;28;20040;-47
2023/06/16 01:15:16;;;;;;;17.50;10.27;;;;;;;17.82;100.00;101875.28;5043339;28;20065;-46
2023/06/16 01:17:44;;;;;;;15.63;9.65;;;;;;;17.78;100.00;101881.09;5040691;28;20029;-47
2023/06/16 01:20:27;;;;;;;14.32;8.50;;;;;;;17.73;100.00;101878.16;5033443;28;20491;-46
2023/06/16 01:23:17;;;;;;;11.65;8.60;;;;;;;17.73;100.00;101878.16;5028437;28;20037;-46
2023/06/16 01:25:44;;;;;;;16.25;8.73;;;;;;;17.70;100.00;101872.28;5039168;28;20033;-46
2023/06/16 01:28:11;;;;;;;18.73;9.70;;;;;;;17.63;100.00;101874.97;5036744;28;20033;-46
2023/06/16 01:30:42;;;;;;;14.70;8.90;;;;;;;17.67;100.00;101880.88;5049060;28;20479;-48
2023/06/16 01:33:10;;;;;;;15.05;9.68;;;;;;;17.72;100.00;101878.34;5043166;28;20057;-46
2023/06/16 01:35:35;;;;;;;;;;;;;;;17.67;100.00;101870.81;5045721;28;20087;-46
2023/06/16 01:38:01;;;;;;;23.80;8.68;;;;;;;17.63;100.00;101877.69;5033580;28;20031;-46
2023/06/16 01:40:26;;;;;;;14.73;9.30;;;;;;;17.61;100.00;101874.31;5043565;28;20072;-44
2023/06/16 01:42:52;;;;;;;19.45;9.20;;;;;;;17.57;100.00;101870.34;5052227;28;20028;-45
2023/06/16 01:45:18;;;;;;;15.50;9.23;;;;;;;17.55;100.00;101869.69;5052151;28;20087;-47
2023/06/16 01:47:44;;;;;;;11.77;9.13;;;;;;;17.54;100.00;101870.75;5052094;28;20017;-46
2023/06/16 01:50:13;;;;;;;13.73;9.00;;;;;;;17.52;100.00;101867.41;5039276;28;20048;-48
2023/06/16 01:52:39;;;;;;;14.88;8.88;;;;;;;17.50;100.00;101862.13;5032125;28;20130;-46
2023/06/16 01:55:05;;;;;;;13.38;8.80;;;;;;;17.47;100.00;101862.53;5033089;28;20088;-46
2023/06/16 01:57:30;;;;;;;12.30;9.15;;;;;;;17.47;100.00;101857.09;5033193;28;20017;-45
2023/06/16 02:00:12;;;;;;;17.27;8.65;;;;;;;17.45;100.00;101858.34;5034050;28;20033;-49
2023/06/16 02:02:40;;;;;;;15.27;9.98;;;;;;;17.42;100.00;101856.88;5045380;28;20045;-48
2023/06/16 02:05:09;;;;;;;13.20;9.73;;;;;;;17.40;100.00;101855.41;5027787;28;20091;-48
2023/06/16 02:07:38;;;;;;;16.30;10.18;;;;;;;17.38;100.00;101868.34;5031902;28;20039;-47
2023/06/16 02:10:04;;;;;;;18.42;9.90;;;;;;;17.37;100.00;101861.25;5031828;28;20108;-47
2023/06/16 02:12:30;;;;;;;13.32;9.43;;;;;;;17.36;100.00;101867.75;5043958;28;20100;-48
2023/06/16 02:14:56;;;;;;;14.85;9.52;;;;;;;17.32;100.00;101859.13;5046435;28;20496;-49
2023/06/16 02:17:26;;;;;;;12.38;9.02;;;;;;;17.28;100.00;101864.13;5050620;28;20024;-45
2023/06/16 02:19:53;;;;;;;15.32;10.18;;;;;;;17.29;100.00;101862.25;5043382;28;20032;-50
2023/06/16 02:22:18;;;;;;;15.77;9.80;;;;;;;17.26;100.00;101855.34;5050498;28;20318;-47
2023/06/16 02:24:44;;;;;;;18.65;10.43;;;;;;;17.19;100.00;101869.94;5050261;28;20560;-47
2023/06/16 02:27:10;;;;;;;15.80;9.20;;;;;;;17.18;100.00;101863.66;5036000;28;20025;-45
2023/06/16 02:29:35;;;;;;;14.07;10.50;;;;;;;17.11;100.00;101869.09;5048090;28;20033;-47
2023/06/16 02:32:00;;;;;;;15.77;9.98;;;;;;;17.08;100.00;101874.06;5050808;28;20026;-44
2023/06/16 02:34:26;;;;;;;13.23;9.88;;;;;;;17.05;100.00;101875.31;5032257;28;20480;-45
2023/06/16 02:36:51;;;;;;;16.25;10.57;;;;;;;17.04;100.00;101870.06;5047048;28;20051;-47
2023/06/16 02:39:18;;;;;;;12.48;9.55;;;;;;;17.11;100.00;101873.66;5050775;28;20045;-46
2023/06/16 02:41:43;;;;;;;17.52;9.52;;;;;;;17.11;100.00;101870.94;5052490;28;20044;-48
2023/06/16 02:44:09;;;;;;;13.48;10.07;;;;;;;17.06;100.00;101862.53;5047953;28;20029;-46
2023/06/16 02:46:35;;;;;;;14.05;10.07;;;;;;;17.03;100.00;101865.66;5031030;28;20021;-47
2023/06/16 02:49:00;;;;;;;15.40;9.52;;;;;;;17.02;100.00;101864.00;5048653;28;20106;-44
2023/06/16 02:51:25;;;;;;;13.45;9.73;;;;;;;16.96;100.00;101870.25;5039825;28;20029;-45
2023/06/16 02:53:51;;;;;;;17.98;10.50;;;;;;;16.96;100.00;101867.53;5042975;28;20498;-44
2023/06/16 02:56:20;;;;;;;15.43;9.48;;;;;;;16.91;100.00;101864.56;5039059;28;20030;-45
2023/06/16 02:58:47;;;;;;;14.93;9.82;;;;;;;16.87;100.00;101867.66;5040112;28;20115;-46
2023/06/16 03:01:12;;;;;;;14.93;10.57;;;;;;;16.85;100.00;101869.75;5032650;28;20029;-45
2023/06/16 03:03:37;;;;;;;15.73;10.20;;;;;;;16.84;100.00;101872.66;5034325;28;20032;-47
2023/06/16 03:06:03;;;;;;;13.68;9.15;;;;;;;16.82;100.00;101869.28;5042244;28;20056;-45
2023/06/16 03:08:28;;;;;;;13.50;9.88;;;;;;;16.82;100.00;101881.00;5032441;28;20067;-46
2023/06/16 03:10:54;;;;;;;16.45;10.52;;;;;;;16.83;100.00;101870.97;5040555;28;20115;-47
2023/06/16 03:13:19;;;;;;;15.75;9.98;;;;;;;16.81;100.00;101878.50;5050042;28;20186;-45
2023/06/16 03:15:46;;;;;;;15.98;9.27;;;;;;;16.75;100.00;101877.38;5040728;28;20388;-46
2023/06/16 03:18:12;;;;;;;16.00;9.60;;;;;;;16.73;100.00;101878.59;5048431;28;20450;-45
2023/06/16 03:20:39;;;;;;;15.52;10.07;;;;;;;16.71;100.00;101877.97;5043543;28;20116;-47
2023/06/16 03:23:04;;;;;;;14.88;9.30;;;;;;;16.75;100.00;101882.81;5046652;28;20029;-45
2023/06/16 03:25:35;;;;;;;22.15;9.38;;;;;;;16.77;100.00;101882.59;5037751;28;20083;-45
2023/06/16 03:28:00;;;;;;;11.10;8.80;;;;;;;16.80;100.00;101888.53;5042453;28;20088;-48
2023/06/16 03:30:26;;;;;;;12.90;8.05;;;;;;;16.76;100.00;101876.31;5049809;28;20428;-48
2023/06/16 03:32:52;;;;;;;12.55;7.68;;;;;;;16.77;100.00;101885.31;5051527;28;20351;-48
2023/06/16 03:35:17;;;;;;;13.25;7.85;;;;;;;16.71;100.00;101881.50;5047852;28;20024;-47
2023/06/16 03:37:43;;;;;;;14.90;8.05;;;;;;;16.71;100.00;101886.94;5051191;28;20075;-46
2023/06/16 03:40:09;;;;;;;12.48;7.78;;;;;;;16.72;100.00;101885.06;5049846;28;20100;-46
2023/06/16 03:42:36;;;;;;;15.15;7.65;;;;;;;16.70;100.00;101884.44;5050894;28;20094;-46
2023/06/16 03:45:03;;;;;;;10.77;7.25;;;;;;;16.72;100.00;101891.38;5043982;28;20036;-48
2023/06/16 03:47:28;;;;;;;19.83;8.00;;;;;;;16.73;100.00;101892.19;5030896;28;20025;-47
2023/06/16 03:49:54;;;;;;;11.30;6.90;;;;;;;16.72;100.00;101896.81;5031876;28;20115;-46
2023/06/16 03:52:20;;;;;;;9.48;7.40;;;;;;;16.71;100.00;101889.66;5047689;28;20056;-46
2023/06/16 03:54:46;;;;;;;15.18;7.78;;;;;;;16.70;100.00;101882.56;5038984;28;20061;-44
2023/06/16 03:57:12;;;;;;;14.32;6.72;;;;;;;16.71;100.00;101892.38;5040194;28;20627;-47
2023/06/16 03:59:38;;;;;;;15.15;7.88;;;;;;;16.76;100.00;101889.91;5037593;28;20044;-46
2023/06/16 04:02:09;;;;;;;12.98;6.68;;;;;;;16.78;100.00;101892.47;5038060;28;20029;-50
2023/06/16 04:04:35;;;;;;;13.50;7.38;;;;;;;16.85;100.00;101886.06;5049670;28;20041;-49
2023/06/16 04:07:01;;;;;;;12.07;6.93;;;;;;;16.84;100.00;101884.38;5034923;28;20060;-47
2023/06/16 04:09:27;;;;;;;10.30;7.20;;;;;;;16.86;100.00;101884.19;5033569;28;20029;-46
2023/06/16 04:11:53;;;;;;;16.00;7.13;;;;;;;16.89;100.00;101881.88;5033494;28;20442;-46
2023/06/16 04:14:18;;;;;;;12.32;7.15;;;;;;;16.94;100.00;101888.63;5031158;28;20026;-48
2023/06/16 04:16:43;;;;;;;11.38;5.97;;;;;;;17.05;100.00;101891.63;5015356;28;20469;-46
2023/06/16 04:19:12;;;;;;;11.88;6.70;;;;;;;17.15;100.00;101885.84;5030944;28;20378;-45
2023/06/16 04:21:37;;;;;;;11.02;6.25;;;;;;;17.17;100.00;101886.47;5035059;28;20037;-48
2023/06/16 04:24:07;;;;;;;10.45;7.22;;;;;;;17.21;100.00;101881.47;5050856;28;20056;-46
2023/06/16 04:26:32;;;;;;;13.05;6.72;;;;;;;17.32;100.00;101886.34;5049316;28;20074;-50
2023/06/16 04:29:03;;;;;;;14.68;6.90;;;;;;;17.45;100.00;101874.69;5044016;28;20100;-48
2023/06/16 04:31:30;;;;;;;12.98;6.30;;;;;;;17.46;100.00;101876.38;5035690;28;20028;-44
2023/06/16 04:33:58;;;;;;;13.13;6.05;;;;;;;17.51;100.00;101873.88;5042956;28;20333;-49
2023/06/16 04:36:25;;;;;;;12.40;6.25;;;;;;;17.59;100.00;101878.28;5045828;28;20469;-47
2023/06/16 04:38:52;;;;;;;9.55;5.78;;;;;;;17.62;100.00;101877.91;5049013;28;20127;-47
2023/06/16 04:41:17;;;;;;;16.33;6.63;;;;;;;17.64;100.00;101879.38;5048567;28;20509;-47
2023/06/16 04:43:42;;;;;;;9.82;6.38;;;;;;;17.67;100.00;101868.09;5049646;28;20100;-48
2023/06/16 04:46:08;;;;;;;9.52;6.00;;;;;;;17.70;100.00;101878.56;5042365;28;20029;-46
2023/06/16 04:48:33;;;;;;;10.43;6.32;;;;;;;17.78;100.00;101881.09;5046476;28;20039;-46
2023/06/16 04:50:59;;;;;;;11.80;6.20;;;;;;;17.91;100.00;101879.50;5034906;28;20038;-50
2023/06/16 04:53:25;;;;;;;10.55;5.97;;;;;;;18.03;100.00;101874.28;5053249;28;20110;-45
2023/06/16 04:55:50;;;;;;;9.73;5.70;;;;;;;18.06;100.00;101880.19;5067351;28;20064;-46
2023/06/16 04:58:16;;;;;;;9.48;6.20;;;;;;;18.10;100.00;101873.25;5048524;28;20130;-46
2023/06/16 05:00:41;;;;;;;15.10;6.45;;;;;;;18.13;100.00;101878.28;5037248;28;20112;-45
2023/06/16 05:03:08;;;;;;;9.45;5.95;;;;;;;18.15;100.00;101878.09;5029801;28;20029;-49
2023/06/16 05:05:33;;;;;;;8.90;5.82;;;;;;;18.16;100.00;101875.13;5030751;28;20064;-46
2023/06/16 05:08:00;;;;;;;10.32;5.90;;;;;;;18.21;100.00;101880.81;5046422;28;20446;-46
2023/06/16 05:10:25;;;;;;;8.50;5.40;;;;;;;18.28;100.00;101878.09;5033670;28;20079;-48
2023/06/16 05:12:51;;;;;;;10.48;5.50;;;;;;;18.36;100.00;101871.63;5033173;28;20104;-48
2023/06/16 05:15:16;;;;;;;7.10;5.35;;;;;;;18.44;100.00;101874.13;5034667;28;20028;-45
2023/06/16 05:17:44;;;;;;;7.55;5.07;;;;;;;18.55;100.00;101870.78;5034975;28;20060;-44
2023/06/16 05:20:10;;;;;;;15.30;5.70;;;;;;;18.65;100.00;101881.25;5049012;28;20419;-46
2023/06/16 05:22:35;;;;;;;12.13;5.55;;;;;;;18.72;100.00;101875.78;5023205;28;20395;-47
2023/06/16 05:25:01;;;;;;;11.10;5.68;;;;;;;18.76;100.00;101879.81;5033723;28;20032;-46
2023/06/16 05:27:27;;;;;;;10.68;5.45;;;;;;;18.75;100.00;101875.44;5047609;28;20036;-45
2023/06/16 05:29:54;;;;;;;9.38;5.28;;;;;;;18.79;100.00;101872.03;5052709;28;20021;-46
2023/06/16 05:32:21;;;;;;;13.13;5.40;;;;;;;18.83;100.00;101877.94;5049159;28;20364;-49
2023/06/16 05:34:51;;;;;;;7.32;5.28;;;;;;;18.96;100.00;101871.63;5034912;28;20037;-44
2023/06/16 05:37:17;;;;;;;10.20;5.15;;;;;;;19.03;100.00;101881.44;5033016;28;20026;-45
2023/06/16 05:39:43;;;;;;;8.38;5.03;;;;;;;19.15;100.00;101872.63;5035709;28;20030;-49
2023/06/16 05:42:10;;;;;;;12.70;4.88;;;;;;;19.29;100.00;101876.97;5034965;28;20021;-45
2023/06/16 05:44:36;;;;;;;12.68;4.70;;;;;;;19.37;100.00;101871.28;5044881;28;20045;-46
2023/06/16 05:47:02;;;;;;;6.95;4.57;;;;;;;19.51;100.00;101878.38;5015960;28;20060;-46
2023/06/16 05:49:27;;;;;;;8.23;4.95;;;;;;;19.62;100.00;101876.88;5034844;28;20080;-47
2023/06/16 05:51:53;;;;;;;6.38;4.55;;;;;;;19.69;100.00;101876.84;5033579;28;20436;-49
2023/06/16 05:54:18;;;;;;;11.82;4.88;;;;;;;19.73;100.00;101878.94;5034330;28;20046;-48
2023/06/16 05:56:44;;;;;;;9.48;4.65;;;;;;;19.86;100.00;101875.31;5033417;28;20032;-50
2023/06/16 05:59:10;;;;;;;10.65;4.53;;;;;;;19.98;100.00;101880.06;5034565;28;20450;-46
2023/06/16 06:01:35;;;;;;;6.97;4.32;;;;;;;20.11;100.00;101882.72;5034786;28;20388;-48
2023/06/16 06:04:01;;;;;;;7.60;4.75;;;;;;;20.21;100.00;101880.34;5046462;28;20036;-45
2023/06/16 06:06:27;;;;;;;8.70;4.63;;;;;;;20.29;100.00;101888.28;5051489;28;20498;-46
2023/06/16 06:08:53;;;;;;;10.40;4.70;;;;;;;20.39;100.00;101894.09;5046843;28;20040;-49
2023/06/16 06:11:18;;;;;;;15.50;5.05;;;;;;;20.43;100.00;101888.16;5051878;28;20029;-47
2023/06/16 06:13:44;;;;;;;9.23;4.28;;;;;;;20.46;100.00;101898.66;5052215;28;20586;-47
2023/06/16 06:16:09;;;;;;;7.82;4.18;;;;;;;20.55;100.00;101902.84;5039035;28;20036;-49
2023/06/16 06:18:34;;;;;;;5.57;4.20;;;;;;;20.67;100.00;101903.81;5035988;28;20476;-48
2023/06/16 06:21:00;;;;;;;7.22;4.25;;;;;;;20.64;100.00;101911.59;5032694;28;20029;-48
2023/06/16 06:23:26;;;;;;;10.25;4.68;;;;;;;20.70;100.00;101888.84;5043476;28;20025;-46
2023/06/16 06:25:51;;;;;;;7.90;3.90;;;;;;;20.83;100.00;101900.50;5053609;28;20155;-45
2023/06/16 06:28:16;;;;;;;7.32;4.05;;;;;;;20.92;100.00;101894.72;5053489;28;20104;-49
2023/06/16 06:30:43;;;;;;;4.82;3.70;;;;;;;21.04;100.00;101895.69;5053812;28;20113;-46
2023/06/16 06:33:08;;;;;;;6.20;4.03;;;;;;;21.17;100.00;101902.88;5053211;28;20056;-47
2023/06/16 06:35:33;;;;;;;8.45;3.75;;;;;;;21.34;100.00;101895.75;5052583;28;20444;-44
2023/06/16 06:37:59;;;;;;;5.25;3.55;;;;;;;21.54;99.28;101906.53;5051467;28;20029;-46
2023/06/16 06:40:25;;;;;;;8.75;4.30;;;;;;;21.71;100.00;101906.72;5034891;28;20063;-46
2023/06/16 06:42:51;;;;;;;15.35;4.35;;;;;;;21.92;98.15;101908.97;5038362;28;20017;-44
2023/06/16 06:45:16;;;;;;;8.95;3.90;;;;;;;21.96;97.16;101903.00;5041100;28;20028;-49
2023/06/16 06:47:42;;;;;;;9.50;3.95;;;;;;;22.07;98.06;101900.34;5043402;28;20082;-46
2023/06/16 06:50:07;;;;;;;5.18;3.53;;;;;;;22.22;95.92;101901.81;5042197;28;20420;-49
2023/06/16 06:52:33;;;;;;;9.10;4.00;;;;;;;22.31;93.12;101908.66;5042785;28;20029;-44
2023/06/16 06:54:58;;;;;;;6.32;3.38;;;;;;;22.31;93.29;101905.94;5041039;28;20050;-47
2023/06/16 06:57:24;;;;;;;11.35;4.22;;;;;;;22.34;92.48;101910.94;5041615;28;21157;-47
2023/06/16 06:59:49;;;;;;;5.70;3.40;;;;;;;22.66;92.59;101907.91;5040537;28;20482;-45
2023/06/16 07:02:16;;;;;;;6.82;3.42;;;;;;;23.28;90.89;101910.19;5042479;28;20144;-44
2023/06/16 07:04:42;;;;;;;7.32;4.05;;;;;;;23.98;86.20;101911.94;5042281;28;20029;-47
2023/06/16 07:07:08;;;;;;;3.50;3.13;;;;;;;25.17;83.39;101917.31;5040269;28;20021;-46
2023/06/16 07:09:34;;;;;;;8.93;4.00;;;;;;;26.26;75.49;101917.50;5041802;28;20179;-49
2023/06/16 07:11:59;;;;;;;6.82;3.60;;;;;;;26.86;71.58;101913.63;5037459;28;20104;-45
2023/06/16 07:14:26;;;;;;;5.25;3.25;;;;;;;27.57;69.82;101915.16;5041838;28;20363;-46
2023/06/16 07:16:52;;;;;;;7.00;3.50;;;;;;;27.97;65.56;101913.66;5041564;28;20036;-48
2023/06/16 07:19:17;;;;;;;9.13;3.65;;;;;;;28.39;64.95;101920.91;5040172;28;20021;-46
2023/06/16 07:21:42;;;;;;;7.45;3.63;;;;;;;28.99;60.17;101913.69;5038776;28;20049;-47
2023/06/16 07:24:08;;;;;;;4.18;2.90;;;;;;;29.77;57.09;101922.63;5043092;28;20025;-47
2023/06/16 07:26:33;;;;;;;9.00;3.47;;;;;;;30.22;55.00;101929.00;5043178;28;20112;-45
2023/06/16 07:29:00;;;;;;;6.40;3.07;;;;;;;30.60;51.99;101919.03;5026035;28;20425;-45
2023/06/16 07:31:27;;;;;;;5.85;3.20;;;;;;;30.91;46.82;101918.75;5040372;28;20019;-45
2023/06/16 07:33:52;;;;;;;9.20;3.30;;;;;;;31.03;47.25;101917.22;5039916;28;20044;-51
2023/06/16 07:36:17;;;;;;;7.57;3.03;;;;;;;31.41;45.38;101917.41;5039441;28;20179;-49
2023/06/16 07:38:43;;;;;;;5.37;2.87;;;;;;;31.43;42.46;101920.69;5037061;28;20076;-46
2023/06/16 07:41:08;;;;;;;7.37;3.47;;;;;;;30.69;44.22;101922.00;5038039;28;20084;-47
2023/06/16 07:43:35;;;;;;;5.33;3.20;;;;;;;30.86;45.58;101932.69;5027291;28;20025;-49
2023/06/16 07:46:00;;;;;;;3.40;2.90;;;;;;;31.21;42.40;101918.44;5039922;28;20466;-50
2023/06/16 07:48:26;;;;;;;6.87;3.53;;;;;;;31.52;41.82;101923.66;5039968;28;20020;-48
2023/06/16 07:50:53;;;;;;;5.60;3.10;;;;;;;31.09;43.07;101925.50;5040893;28;20034;-46
2023/06/16 07:53:18;;;;;;;6.95;3.40;;;;;;;31.63;41.02;101929.91;5038391;28;20041;-49
2023/06/16 07:55:44;;;;;;;6.57;3.40;;;;;;;31.90;41.69;101923.69;5042138;28;20080;-49
2023/06/16 07:58:09;;;;;;;4.20;3.03;;;;;;;32.42;38.31;101923.78;5042172;28;20021;-46
2023/06/16 08:00:34;;;;;;;3.53;3.23;;;;;;;32.84;36.37;101922.78;5040347;28;20029;-49
2023/06/16 08:03:01;;;;;;;7.07;2.97;;;;;;;31.83;38.87;101912.91;5039649;28;20032;-47
2023/06/16 08:05:27;;;;;;;7.65;2.92;;;;;;;32.32;39.18;101921.97;5041041;28;20033;-49
2023/06/16 08:07:52;;;;;;;6.23;3.30;;;;;;;33.11;37.03;101922.00;5040649;28;20025;-50
2023/06/16 08:10:20;;;;;;;7.00;3.27;;;;;;;33.09;38.00;101920.66;5037007;28;20049;-48
2023/06/16 08:12:46;;;;;;;7.00;3.38;;;;;;;33.22;36.53;101911.47;5026853;28;20025;-47
2023/06/16 08:15:13;;;;;;;8.30;3.13;;;;;;;33.19;35.10;101912.94;5041664;28;20102;-50
2023/06/16 08:17:38;;;;;;;4.65;2.97;;;;;;;32.77;35.56;101919.56;5039387;28;20033;-50
2023/06/16 08:20:06;;;;;;;5.10;3.00;;;;;;;32.75;35.81;101917.06;5038949;28;20204;-48
2023/06/16 08:22:32;;;;;;;9.32;3.35;;;;;;;32.62;36.01;101911.47;5041423;28;20026;-49
2023/06/16 08:24:58;;;;;;;3.80;2.97;;;;;;;33.07;34.20;101909.81;5039525;28;20030;-47
2023/06/16 08:27:23;;;;;;;4.20;3.00;;;;;;;32.66;33.74;101916.13;5039456;28;20048;-50
2023/06/16 08:29:50;;;;;;;6.47;3.40;;;;;;;32.04;36.97;101910.69;5042643;28;20091;-47
2023/06/16 08:32:15;;;;;;;;;;;;;;;32.20;37.26;101918.81;5037874;28;20064;-49
2023/06/16 08:34:40;;;;;;;4.63;2.83;;;;;;;33.22;35.17;101914.25;5038036;28;19920;-47
2023/06/16 08:37:07;;;;;;;9.93;2.60;;;;;;;32.76;31.77;101915.13;5041726;28;20033;-48
2023/06/16 08:39:32;;;;;;;12.77;3.30;;;;;;;32.25;33.01;101908.41;5040341;28;20028;-46
2023/06/16 08:41:58;;;;;;;3.03;2.73;;;;;;;32.43;34.12;101909.53;5041146;28;20021;-48
2023/06/16 08:44:24;;;;;;;5.87;2.73;;;;;;;33.45;31.93;101902.06;5024225;28;20033;-51
2023/06/16 08:46:50;;;;;;;7.03;3.05;;;;;;;33.11;31.43;101912.81;5039307;28;20021;-49
2023/06/16 08:49:16;;;;;;;4.97;3.27;;;;;;;32.05;30.73;101904.00;5039067;28;20242;-47
2023/06/16 08:51:52;;;;;;;7.33;3.43;;;;;;;31.28;34.50;101902.22;5041937;28;20037;-51
2023/06/16 08:54:21;;;;;;;;;;;;;;;31.31;34.32;101899.94;5039276;28;20056;-48
2023/06/16 08:56:48;;;;;;;4.53;2.92;;;;;;;30.59;33.81;101900.69;5035716;28;19929;-49
2023/06/16 08:59:15;;;;;;;5.15;3.00;;;;;;;30.92;31.39;101898.19;5039457;28;20418;-45
2023/06/16 09:01:40;;;;;;;;;;;;;;;31.10;32.74;101899.34;5028643;28;20033;-47
2023/06/16 09:04:09;;;;;;;4.57;3.17;;;;;;;32.34;30.73;101903.81;5030198;28;20023;-48
2023/06/16 09:06:39;;;;;;;8.15;2.70;;;;;;;32.75;28.34;101900.34;5028832;28;20040;-46
2023/06/16 09:09:04;;;;;;;6.32;2.88;;;;;;;32.88;28.02;101901.50;5028803;28;20048;-48
2023/06/16 09:11:30;;;;;;;5.97;2.80;;;;;;;33.17;27.61;101906.00;5029952;28;20060;-47
2023/06/16 09:13:56;;;;;;;6.32;2.67;;;;;;;33.80;25.75;101910.00;5030068;28;20040;-46
2023/06/16 09:16:22;;;;;;;4.37;2.70;;;;;;;33.66;28.01;101907.25;5028657;28;20068;-50
2023/06/16 09:18:49;;;;;;;7.10;2.80;;;;;;;34.25;25.63;101907.28;5029788;28;20025;-47
2023/06/16 09:21:23;;;;;;;3.65;2.70;;;;;;;34.04;25.77;101915.28;5026835;28;20447;-46
2023/06/16 09:23:57;;;;;;;4.85;2.70;;;;;;;34.00;26.14;101903.94;5027948;28;20022;-50
2023/06/16 09:26:24;;;;;;;3.90;2.53;;;;;;;34.31;25.77;101904.06;5028504;28;20053;-47
2023/06/16 09:28:51;;;;;;;7.53;3.40;;;;;;;34.38;26.29;101900.78;5026973;28;20025;-47
2023/06/16 09:31:17;;;;;;;5.55;2.80;;;;;;;34.49;26.32;101907.81;5028615;28;20523;-48
2023/06/16 09:33:42;;;;;;;;;;;;;;;34.29;28.02;101905.50;5028737;28;20565;-47
2023/06/16 09:36:09;;;;;;;5.93;2.73;;;;;;;34.35;27.31;101906.22;5029200;28;20007;-48
2023/06/16 09:38:36;;;;;;;3.05;2.67;;;;;;;35.37;25.39;101897.88;5030095;28;20391;-45
2023/06/16 09:41:09;;;;;;;3.42;3.10;;;;;;;35.90;23.37;101899.63;5030398;28;20033;-47
2023/06/16 09:43:36;;;;;;;5.47;2.80;;;;;;;35.89;23.61;101898.00;5030089;28;20048;-46
2023/06/16 09:46:02;;;;;;;3.35;2.60;;;;;;;35.56;24.01;101900.38;5028951;28;20017;-48
2023/06/16 09:48:32;;;;;;;8.43;2.90;;;;;;;34.86;23.52;101902.09;5030299;28;21148;-46
2023/06/16 09:50:59;;;;;;;4.32;2.75;;;;;;;33.49;24.95;101895.84;5030539;28;20571;-51
2023/06/16 09:53:26;;;;;;;7.00;2.97;;;;;;;34.12;25.29;101892.22;5030319;28;20056;-50
2023/06/16 09:55:53;;;;;;;5.70;3.10;;;;;;;34.92;23.19;101898.84;5028851;28;20056;-46
2023/06/16 09:58:19;;;;;;;3.17;2.80;;;;;;;35.00;23.36;101904.81;5032789;28;20049;-45
2023/06/16 10:00:44;;;;;;;3.57;2.83;;;;;;;34.97;23.71;101904.28;5033383;28;20096;-49
2023/06/16 10:03:10;;;;;;;4.23;3.00;;;;;;;33.82;22.92;101896.56;5034276;28;20029;-52
2023/06/16 10:05:37;;;;;;;3.30;2.80;;;;;;;32.87;25.44;101890.69;5033387;28;20068;-50
2023/06/16 10:08:04;;;;;;;;;;;;;;;33.60;25.44;101891.75;5033642;28;20280;-49
2023/06/16 10:10:30;;;;;;;6.05;3.00;;;;;;;34.48;23.85;101897.75;5032233;28;19924;-47
2023/06/16 10:12:56;;;;;;;3.30;2.53;;;;;;;35.22;22.86;101889.94;5033342;28;20033;-50
2023/06/16 10:15:23;;;;;;;7.00;3.10;;;;;;;35.48;21.55;101888.03;5032675;28;20036;-48
2023/06/16 10:17:50;;;;;;;5.70;2.88;;;;;;;35.35;21.09;101889.78;5031773;28;20040;-47
2023/06/16 10:20:18;;;;;;;7.32;2.85;;;;;;;35.25;20.53;101889.28;5015262;28;20444;-47
2023/06/16 10:22:44;;;;;;;3.33;2.55;;;;;;;35.40;20.64;101891.63;5032207;28;20024;-47
2023/06/16 10:25:10;;;;;;;6.30;3.10;;;;;;;35.11;21.68;101879.03;5032923;28;20025;-48
2023/06/16 10:27:36;;;;;;;5.17;2.80;;;;;;;35.29;22.45;101879.09;5031471;28;20526;-48
2023/06/16 10:30:03;;;;;;;6.47;3.28;;;;;;;35.13;24.95;101875.91;5032732;28;20029;-47
2023/06/16 10:32:28;;;;;;;3.97;3.00;;;;;;;35.58;26.19;101865.34;5031397;28;20033;-47
2023/06/16 10:34:56;;;;;;;7.10;3.27;;;;;;;35.54;26.00;101869.09;5032452;28;20036;-48
2023/06/16 10:37:27;;;;;;;10.65;3.42;;;;;;;35.31;27.22;101873.97;5032980;28;20025;-51
2023/06/16 10:40:04;;;;;;;8.68;3.17;;;;;;;35.07;26.84;101875.22;5032767;28;20060;-47
2023/06/16 10:42:34;;;;;;;4.90;3.05;;;;;;;34.50;26.71;101863.91;5032672;28;20253;-48
2023/06/16 10:45:24;;;;;;;5.15;3.47;;;;;;;34.96;26.22;101869.06;5032505;28;20057;-49
2023/06/16 10:47:55;;;;;;;4.88;3.30;;;;;;;34.40;27.08;101869.75;5032323;28;20581;-51
2023/06/16 10:50:29;;;;;;;5.90;3.28;;;;;;;35.21;26.93;101871.50;5032234;28;20029;-47
2023/06/16 10:52:55;;;;;;;3.95;2.85;;;;;;;35.08;26.83;101871.28;5031213;28;20040;-49
2023/06/16 10:55:31;;;;;;;3.90;3.40;;;;;;;34.88;27.17;101863.44;5031050;28;20054;-48
2023/06/16 10:58:20;;;;;;;11.93;3.08;;;;;;;35.39;26.98;101862.00;5032580;28;20109;-46
2023/06/16 11:01:02;;;;;;;7.65;2.90;;;;;;;35.18;25.52;101867.38;5032292;28;20110;-47
2023/06/16 11:03:29;;;;;;;4.85;3.10;;;;;;;34.46;26.47;101871.25;5031047;28;20128;-46
2023/06/16 11:05:59;;;;;;;10.13;3.40;;;;;;;34.65;26.74;101869.13;5030702;28;20033;-48
2023/06/16 11:08:25;;;;;;;4.38;3.00;;;;;;;34.16;26.56;101865.31;5031883;28;20384;-46
2023/06/16 11:10:52;;;;;;;4.88;2.88;;;;;;;34.58;26.94;101868.72;5031895;28;20017;-49
2023/06/16 11:13:21;;;;;;;5.53;3.20;;;;;;;35.00;26.43;101866.47;5031734;28;20021;-49
2023/06/16 11:15:47;;;;;;;9.43;6.47;;;;;;;35.28;25.22;101861.44;5030307;28;20087;-47